Time;durP1;ratioP1;P1;durP2;ratioP2;P2;SDS_P1;SDS_P2;PMS_P1;PMS_P2;Temp;Humidity;BMP_temperature;BMP_pressure;BME280_temperature;BME280_humidity;BME280_pressure;Samples;Min_cycle;Max_cycle;Signal;HPM_P1;HPM_P2
2021/08/15 00:01:39;;;;;;;18.13;4.78;;;29.80;54.00;;;;;;6152480;28;20098;-74
2021/08/15 00:04:40;;;;;;;15.55;4.85;;;29.70;54.10;;;;;;6153214;28;20095;-74
2021/08/15 00:07:42;;;;;;;15.93;4.72;;;29.70;54.20;;;;;;6152564;28;20117;-74
2021/08/15 00:10:44;;;;;;;16.75;4.82;;;29.70;54.40;;;;;;6152273;28;20023;-74
2021/08/15 00:13:45;;;;;;;18.58;5.00;;;29.60;54.60;;;;;;6153317;28;20035;-74
2021/08/15 00:16:46;;;;;;;17.95;4.97;;;29.60;54.80;;;;;;6152748;28;20035;-74
2021/08/15 00:19:47;;;;;;;21.45;5.40;;;29.50;55.00;;;;;;6151637;28;20063;-74
2021/08/15 00:22:48;;;;;;;16.17;5.43;;;29.40;55.10;;;;;;6151358;28;20137;-74
2021/08/15 00:25:49;;;;;;;13.55;5.10;;;29.50;55.30;;;;;;6151879;28;20042;-74
2021/08/15 00:28:51;;;;;;;18.15;4.38;;;29.50;55.30;;;;;;6135833;28;20039;-74
2021/08/15 00:31:52;;;;;;;18.67;4.70;;;29.40;55.20;;;;;;6151564;28;20039;-74
2021/08/15 00:34:53;;;;;;;20.92;5.53;;;29.40;55.10;;;;;;6152576;28;20102;-74
2021/08/15 00:37:54;;;;;;;15.40;4.90;;;29.50;55.20;;;;;;6135655;28;20103;-74
2021/08/15 00:40:55;;;;;;;13.85;4.88;;;29.40;55.10;;;;;;6152560;28;20360;-74
2021/08/15 00:43:56;;;;;;;14.63;4.80;;;29.40;55.20;;;;;;6152594;28;20039;-74
2021/08/15 00:46:57;;;;;;;11.93;4.72;;;29.40;55.20;;;;;;6151162;28;20090;-74
2021/08/15 00:50:00;;;;;;;16.30;5.28;;;29.40;55.30;;;;;;6151242;28;20054;-74
2021/08/15 00:53:02;;;;;;;11.10;5.25;;;29.40;55.30;;;;;;6150784;28;20054;-74
2021/08/15 00:56:04;;;;;;;11.35;4.75;;;29.40;55.20;;;;;;6152641;28;20035;-73
2021/08/15 00:59:06;;;;;;;13.23;4.75;;;29.30;55.20;;;;;;6151418;28;20043;-74
2021/08/15 01:02:07;;;;;;;16.88;4.82;;;29.30;55.20;;;;;;6150683;28;20035;-74
2021/08/15 01:05:09;;;;;;;15.52;4.97;;;29.30;55.20;;;;;;6151360;28;20039;-74
2021/08/15 01:08:11;;;;;;;13.43;4.65;;;29.30;55.20;;;;;;6151993;28;20504;-74
2021/08/15 01:11:12;;;;;;;20.48;5.35;;;29.20;55.30;;;;;;6150834;28;20098;-74
2021/08/15 01:14:13;;;;;;;10.00;5.22;;;29.20;55.40;;;;;;6151112;28;20478;-74
2021/08/15 01:17:14;;;;;;;15.98;5.70;;;29.20;55.40;;;;;;6150909;28;20031;-74
2021/08/15 01:20:16;;;;;;;12.95;4.70;;;29.20;55.40;;;;;;6155574;28;20038;-74
2021/08/15 01:23:17;;;;;;;13.20;5.47;;;29.20;55.40;;;;;;6139912;28;20032;-74
2021/08/15 01:26:20;;;;;;;15.43;4.55;;;29.20;55.50;;;;;;6111643;29;20078;-74
2021/08/15 01:29:22;;;;;;;19.45;5.18;;;29.20;55.60;;;;;;6127306;29;20036;-74
2021/08/15 01:32:23;;;;;;;10.60;4.80;;;29.10;55.70;;;;;;6153079;28;20047;-74
2021/08/15 01:35:25;;;;;;;10.63;4.70;;;29.10;55.70;;;;;;6151173;28;20059;-73
2021/08/15 01:38:29;;;;;;;20.45;4.75;;;29.00;55.70;;;;;;6151892;28;20392;-73
2021/08/15 01:41:30;;;;;;;11.77;4.82;;;29.00;55.70;;;;;;6149465;29;20140;-73
2021/08/15 01:44:31;;;;;;;14.43;5.22;;;29.00;55.70;;;;;;6150531;29;20233;-74
2021/08/15 01:47:33;;;;;;;17.60;4.90;;;29.00;55.70;;;;;;6135133;29;20035;-74
2021/08/15 01:50:34;;;;;;;17.25;5.03;;;29.00;55.80;;;;;;6150822;28;20035;-74
2021/08/15 01:53:35;;;;;;;15.57;4.80;;;28.90;55.90;;;;;;6148945;28;20442;-74
2021/08/15 01:56:37;;;;;;;19.38;4.75;;;28.90;56.10;;;;;;6155096;28;20122;-74
2021/08/15 01:59:38;;;;;;;22.00;6.18;;;28.90;56.20;;;;;;6139110;29;20365;-74
2021/08/15 02:02:43;;;;;;;16.48;5.38;;;28.80;56.30;;;;;;6155691;29;20367;-74
2021/08/15 02:05:44;;;;;;;18.08;5.22;;;28.80;56.50;;;;;;6155642;28;20039;-74
2021/08/15 02:08:48;;;;;;;13.60;4.90;;;28.80;57.10;;;;;;6155162;29;20031;-74
2021/08/15 02:11:49;;;;;;;17.70;4.72;;;28.70;56.60;;;;;;6139137;29;20043;-74
2021/08/15 02:14:50;;;;;;;9.10;4.70;;;28.70;56.70;;;;;;6155008;29;20036;-74
2021/08/15 02:17:51;;;;;;;20.20;5.50;;;28.60;56.70;;;;;;6155813;28;20042;-74
2021/08/15 02:20:52;;;;;;;12.43;4.95;;;28.80;56.80;;;;;;6155275;28;20044;-74
2021/08/15 02:23:55;;;;;;;14.98;5.60;;;28.50;56.70;;;;;;6153267;29;20038;-73
2021/08/15 02:26:56;;;;;;;13.95;5.22;;;28.50;56.80;;;;;;6155729;28;20051;-74
2021/08/15 02:29:57;;;;;;;11.55;5.18;;;28.40;56.80;;;;;;6154765;28;20042;-74
2021/08/15 02:32:59;;;;;;;16.33;5.30;;;28.30;56.90;;;;;;6154531;29;20035;-74
2021/08/15 02:36:00;;;;;;;15.25;5.40;;;28.30;57.10;;;;;;6138407;29;20109;-74
2021/08/15 02:39:01;;;;;;;17.58;5.75;;;28.20;57.20;;;;;;6150162;28;20032;-74
2021/08/15 02:42:03;;;;;;;18.70;5.75;;;28.20;57.40;;;;;;6138633;28;20170;-74
2021/08/15 02:45:05;;;;;;;19.33;5.93;;;28.10;57.60;;;;;;6154665;29;20583;-74
2021/08/15 02:48:06;;;;;;;14.88;5.47;;;28.10;57.70;;;;;;6138496;29;20041;-74
2021/08/15 02:51:07;;;;;;;22.67;5.63;;;28.00;57.80;;;;;;6154270;29;20496;-74
2021/08/15 02:54:09;;;;;;;19.63;5.95;;;28.00;58.00;;;;;;6152597;28;20039;-74
2021/08/15 02:57:10;;;;;;;18.30;5.07;;;27.90;57.90;;;;;;6154144;29;20368;-75
2021/08/15 03:00:12;;;;;;;25.27;5.47;;;27.90;58.00;;;;;;6154112;29;20035;-74
2021/08/15 03:03:14;;;;;;;27.75;5.57;;;27.80;58.10;;;;;;6154138;28;20031;-74
2021/08/15 03:06:15;;;;;;;11.07;5.15;;;27.80;58.20;;;;;;6152134;28;20114;-74
2021/08/15 03:09:16;;;;;;;19.05;6.00;;;27.80;58.20;;;;;;6138701;29;20031;-74
2021/08/15 03:12:18;;;;;;;19.20;5.97;;;27.80;58.20;;;;;;6153950;28;20067;-74
2021/08/15 03:15:19;;;;;;;14.13;5.55;;;27.80;58.20;;;;;;6146279;29;20063;-74
2021/08/15 03:18:20;;;;;;;13.40;5.78;;;27.80;58.20;;;;;;6157708;28;20052;-74
2021/08/15 03:21:21;;;;;;;18.33;6.07;;;27.80;58.20;;;;;;6160247;28;20106;-72
2021/08/15 03:24:22;;;;;;;18.55;5.70;;;27.80;58.20;;;;;;6157997;29;20043;-73
2021/08/15 03:27:23;;;;;;;13.50;5.07;;;27.70;58.30;;;;;;6157176;28;20035;-73
2021/08/15 03:30:24;;;;;;;13.40;5.43;;;27.70;58.30;;;;;;6153339;29;20372;-73
2021/08/15 03:33:25;;;;;;;14.40;6.28;;;27.70;58.40;;;;;;6137341;29;20043;-73
2021/08/15 03:36:26;;;;;;;17.33;5.65;;;27.70;58.50;;;;;;6153881;28;20054;-73
2021/08/15 03:39:30;;;;;;;27.40;5.40;;;27.60;58.50;;;;;;6153015;28;20035;-74
2021/08/15 03:42:32;;;;;;;10.90;5.50;;;27.60;58.50;;;;;;6153768;28;20054;-73
2021/08/15 03:45:33;;;;;;;8.40;4.90;;;27.60;58.60;;;;;;6153977;28;20047;-74
2021/08/15 03:48:34;;;;;;;20.27;5.70;;;27.50;58.60;;;;;;6168906;28;20040;-73
2021/08/15 03:51:35;;;;;;;11.85;5.00;;;27.50;58.80;;;;;;6152406;28;20062;-73
2021/08/15 03:54:36;;;;;;;18.45;6.00;;;27.50;59.00;;;;;;6115393;29;20049;-73
2021/08/15 03:57:38;;;;;;;17.70;5.10;;;27.40;59.00;;;;;;6129815;29;20036;-73
2021/08/15 04:00:42;;;;;;;13.90;5.65;;;27.40;59.00;;;;;;6128522;29;20035;-73
2021/08/15 04:03:43;;;;;;;20.60;5.63;;;27.40;59.20;;;;;;6128704;29;20167;-73
2021/08/15 04:06:44;;;;;;;19.35;5.55;;;27.30;59.10;;;;;;6144801;28;20043;-73
2021/08/15 04:09:45;;;;;;;14.70;5.32;;;27.30;59.20;;;;;;6112881;29;20062;-73
2021/08/15 04:12:47;;;;;;;17.60;5.50;;;27.20;59.10;;;;;;6112649;29;20043;-73
2021/08/15 04:15:48;;;;;;;18.88;6.25;;;27.20;59.20;;;;;;6129594;28;20040;-73
2021/08/15 04:18:49;;;;;;;22.48;5.90;;;27.20;59.30;;;;;;6129153;28;20119;-73
2021/08/15 04:21:50;;;;;;;13.88;4.88;;;27.20;59.40;;;;;;6129284;29;20043;-73
2021/08/15 04:24:51;;;;;;;14.60;5.47;;;27.20;59.30;;;;;;6151683;28;20050;-73
2021/08/15 04:27:52;;;;;;;16.02;5.28;;;27.20;59.30;;;;;;6152014;28;20039;-73
2021/08/15 04:30:53;;;;;;;10.48;5.07;;;27.20;59.40;;;;;;6151945;28;20384;-73
2021/08/15 04:33:54;;;;;;;26.48;5.72;;;27.20;59.40;;;;;;6151825;28;20043;-73
2021/08/15 04:36:55;;;;;;;13.75;5.22;;;27.20;59.40;;;;;;6152023;28;20035;-73
2021/08/15 04:39:56;;;;;;;20.92;5.78;;;27.20;59.40;;;;;;6152906;28;20035;-73
2021/08/15 04:42:57;;;;;;;18.83;5.82;;;27.30;59.40;;;;;;6150538;28;20031;-73
2021/08/15 04:45:59;;;;;;;13.77;5.22;;;27.30;59.40;;;;;;6152867;28;20126;-73
2021/08/15 04:49:01;;;;;;;15.75;5.60;;;27.30;59.40;;;;;;6152872;28;20043;-73
2021/08/15 04:52:03;;;;;;;20.45;6.60;;;27.30;59.30;;;;;;6151462;28;20074;-73
2021/08/15 04:55:04;;;;;;;11.57;4.72;;;27.10;59.20;;;;;;6152106;28;20031;-73
2021/08/15 04:58:05;;;;;;;12.63;5.25;;;27.30;59.20;;;;;;6135735;28;20441;-73
2021/08/15 05:01:06;;;;;;;17.13;5.07;;;27.30;59.20;;;;;;6152641;28;20047;-74
2021/08/15 05:04:07;;;;;;;17.20;4.97;;;27.30;59.30;;;;;;6151484;29;20035;-74
2021/08/15 05:07:09;;;;;;;17.05;5.28;;;27.30;59.30;;;;;;6151429;28;20449;-73
2021/08/15 05:10:10;;;;;;;14.30;5.13;;;27.20;59.40;;;;;;6151135;29;20039;-73
2021/08/15 05:13:12;;;;;;;10.90;4.68;;;27.20;59.60;;;;;;6135442;29;20101;-74
2021/08/15 05:16:14;;;;;;;17.60;5.45;;;27.10;59.60;;;;;;6151693;28;20093;-74
2021/08/15 05:19:15;;;;;;;17.95;5.18;;;27.00;59.60;;;;;;6094383;29;20126;-74
2021/08/15 05:22:17;;;;;;;17.10;5.20;;;27.00;59.80;;;;;;6133362;29;20039;-73
2021/08/15 05:25:18;;;;;;;19.27;5.85;;;27.00;59.90;;;;;;6119610;29;20473;-74
2021/08/15 05:28:19;;;;;;;15.45;5.22;;;27.00;59.90;;;;;;6135063;28;20046;-74
2021/08/15 05:31:20;;;;;;;14.23;5.13;;;27.00;60.00;;;;;;6115108;29;20481;-74
2021/08/15 05:34:21;;;;;;;10.43;4.88;;;27.00;60.00;;;;;;6117710;29;20039;-74
2021/08/15 05:37:22;;;;;;;16.13;5.30;;;27.00;60.00;;;;;;6147991;29;20055;-75
2021/08/15 05:40:23;;;;;;;11.95;4.78;;;27.10;60.00;;;;;;6131986;29;20095;-75
2021/08/15 05:43:25;;;;;;;17.98;5.00;;;27.10;59.90;;;;;;6132866;28;20044;-74
2021/08/15 05:46:26;;;;;;;12.02;4.53;;;27.10;59.70;;;;;;6147966;28;20044;-74
2021/08/15 05:49:27;;;;;;;18.70;5.03;;;27.20;59.70;;;;;;6131575;29;20047;-74
2021/08/15 05:52:28;;;;;;;26.25;5.78;;;27.20;59.60;;;;;;6136225;28;20439;-74
2021/08/15 05:55:29;;;;;;;19.30;5.22;;;27.30;59.60;;;;;;6155660;28;20039;-74
2021/08/15 05:58:30;;;;;;;12.70;4.90;;;27.20;59.50;;;;;;6123454;29;20491;-74
2021/08/15 06:01:33;;;;;;;12.50;4.68;;;27.20;59.60;;;;;;6139112;29;20051;-74
2021/08/15 06:04:34;;;;;;;17.63;5.28;;;27.10;59.50;;;;;;6156034;28;20054;-74
2021/08/15 06:07:36;;;;;;;16.13;5.25;;;27.20;59.60;;;;;;6115357;29;20035;-74
2021/08/15 06:10:38;;;;;;;21.52;5.65;;;27.10;60.30;;;;;;6139049;29;20042;-75
2021/08/15 06:13:39;;;;;;;16.65;5.72;;;27.10;59.60;;;;;;6155171;28;20039;-74
2021/08/15 06:16:41;;;;;;;21.85;6.68;;;27.20;59.70;;;;;;6138799;29;20046;-74
2021/08/15 06:19:42;;;;;;;16.55;5.82;;;27.10;59.70;;;;;;6154283;29;20062;-75
2021/08/15 06:22:45;;;;;;;16.15;5.43;;;27.20;59.70;;;;;;6154325;28;20035;-75
2021/08/15 06:25:46;;;;;;;29.98;5.63;;;27.20;59.60;;;;;;6137789;29;20062;-75
2021/08/15 06:28:48;;;;;;;11.30;5.38;;;27.20;59.40;;;;;;6155640;28;20042;-75
2021/08/15 06:31:49;;;;;;;19.67;5.78;;;27.20;59.20;;;;;;6155736;28;20043;-74
2021/08/15 06:34:50;;;;;;;14.07;5.13;;;27.30;59.80;;;;;;6154884;28;20424;-74
2021/08/15 06:37:53;;;;;;;17.17;5.05;;;27.30;59.00;;;;;;6154951;29;20043;-74
2021/08/15 06:40:56;;;;;;;20.15;5.35;;;27.40;58.70;;;;;;6154321;28;20036;-74
2021/08/15 06:43:57;;;;;;;15.43;4.82;;;27.40;58.50;;;;;;6155227;28;20039;-74
2021/08/15 06:46:58;;;;;;;16.08;4.53;;;27.50;58.30;;;;;;6154298;28;20468;-73
2021/08/15 06:50:02;;;;;;;14.15;4.90;;;27.60;58.20;;;;;;6154700;29;20027;-74
2021/08/15 06:53:04;;;;;;;10.32;5.32;;;27.60;58.00;;;;;;6152207;29;20050;-74
2021/08/15 06:56:10;;;;;;;8.88;4.63;;;27.70;58.00;;;;;;6155104;28;20044;-73
2021/08/15 06:59:13;;;;;;;15.25;5.05;;;27.80;57.90;;;;;;6155168;28;20105;-74
2021/08/15 07:02:14;;;;;;;13.32;4.95;;;27.90;57.70;;;;;;6154073;29;20123;-75
2021/08/15 07:05:16;;;;;;;20.90;5.10;;;27.90;57.30;;;;;;6153579;29;20035;-74
2021/08/15 07:08:17;;;;;;;14.90;5.22;;;28.00;57.20;;;;;;6153511;29;20027;-75
2021/08/15 07:11:19;;;;;;;15.73;6.22;;;28.10;56.90;;;;;;6154094;29;20035;-74
2021/08/15 07:14:20;;;;;;;12.50;5.28;;;28.20;56.80;;;;;;6153786;28;20039;-73
2021/08/15 07:17:21;;;;;;;15.25;5.65;;;28.20;56.60;;;;;;6153374;29;20106;-74
2021/08/15 07:20:23;;;;;;;19.23;5.80;;;28.20;56.40;;;;;;6154190;28;20051;-75
2021/08/15 07:23:24;;;;;;;20.50;5.10;;;28.30;56.30;;;;;;6136771;29;20127;-75
2021/08/15 07:26:25;;;;;;;21.73;5.47;;;28.40;56.10;;;;;;6153382;29;20043;-74
2021/08/15 07:29:26;;;;;;;12.90;4.75;;;28.50;55.90;;;;;;6153449;29;20035;-74
2021/08/15 07:32:27;;;;;;;13.45;4.93;;;28.60;55.50;;;;;;6154136;28;20051;-74
2021/08/15 07:35:30;;;;;;;17.42;4.35;;;28.70;55.30;;;;;;6157031;28;20488;-74
2021/08/15 07:38:31;;;;;;;10.95;4.55;;;28.80;55.30;;;;;;6158920;29;20054;-74
2021/08/15 07:41:32;;;;;;;12.98;4.93;;;28.90;54.70;;;;;;6160373;28;20042;-74
2021/08/15 07:44:33;;;;;;;13.70;4.72;;;28.90;54.50;;;;;;6171467;28;20039;-74
2021/08/15 07:47:35;;;;;;;18.35;5.30;;;29.00;54.30;;;;;;6153490;28;20354;-74
2021/08/15 07:50:38;;;;;;;13.68;5.15;;;29.10;54.00;;;;;;6153543;28;20100;-74
2021/08/15 07:53:39;;;;;;;21.60;5.18;;;29.30;53.80;;;;;;6134273;29;20054;-75
2021/08/15 07:56:40;;;;;;;12.75;5.45;;;29.50;53.40;;;;;;6136943;29;20058;-74
2021/08/15 07:59:41;;;;;;;18.05;5.68;;;29.60;53.10;;;;;;6152555;28;20046;-74
2021/08/15 08:02:43;;;;;;;21.42;5.40;;;29.70;52.50;;;;;;6152761;28;20130;-75
2021/08/15 08:05:44;;;;;;;14.88;5.25;;;29.80;52.10;;;;;;6152428;28;20039;-75
2021/08/15 08:08:45;;;;;;;16.58;5.32;;;30.00;52.00;;;;;;6153490;28;20035;-74
2021/08/15 08:11:46;;;;;;;15.20;5.85;;;30.20;51.80;;;;;;6152337;28;20122;-74
2021/08/15 08:14:48;;;;;;;19.77;6.13;;;30.20;51.40;;;;;;6153436;28;20059;-74
2021/08/15 08:17:50;;;;;;;13.13;4.30;;;30.40;50.80;;;;;;6153159;28;20043;-75
2021/08/15 08:20:51;;;;;;;12.43;4.78;;;30.50;49.80;;;;;;6152023;29;20043;-74
2021/08/15 08:23:52;;;;;;;28.92;5.40;;;30.60;49.40;;;;;;6134440;29;20042;-74
2021/08/15 08:26:53;;;;;;;16.30;5.28;;;30.70;49.00;;;;;;6151917;29;20046;-75
2021/08/15 08:29:54;;;;;;;14.38;5.22;;;30.80;48.60;;;;;;6152248;28;20038;-74
2021/08/15 08:32:56;;;;;;;11.80;4.93;;;30.90;47.90;;;;;;6135765;29;20043;-74
2021/08/15 08:35:57;;;;;;;14.57;4.75;;;31.00;47.40;;;;;;6128203;29;20126;-75
2021/08/15 08:38:58;;;;;;;15.32;4.70;;;31.00;46.90;;;;;;6152085;28;20060;-74
2021/08/15 08:42:03;;;;;;;15.77;5.03;;;31.20;46.70;;;;;;6135668;28;20047;-75
2021/08/15 08:45:05;;;;;;;20.08;5.05;;;31.30;46.40;;;;;;6128010;29;20035;-73
2021/08/15 08:48:06;;;;;;;18.25;4.95;;;31.50;45.80;;;;;;6151701;28;20051;-73
2021/08/15 08:51:07;;;;;;;20.30;6.20;;;31.60;45.20;;;;;;6152825;28;20114;-73
2021/08/15 08:54:09;;;;;;;15.77;4.55;;;31.70;44.60;;;;;;6151864;28;20047;-73
2021/08/15 08:57:10;;;;;;;15.95;5.32;;;31.80;43.90;;;;;;6151493;28;20031;-73
2021/08/15 09:00:11;;;;;;;14.90;5.03;;;31.90;43.60;;;;;;6151996;28;20380;-75
2021/08/15 09:03:13;;;;;;;13.88;4.95;;;32.00;43.20;;;;;;6144531;28;20035;-73
2021/08/15 09:06:24;;;;;;;15.57;5.25;;;32.10;43.10;;;;;;6151313;28;20031;-74
2021/08/15 09:09:25;;;;;;;21.90;5.30;;;32.10;43.00;;;;;;6133656;28;20031;-74
2021/08/15 09:12:59;;;;;;;13.50;4.65;;;32.20;43.00;;;;;;6150695;28;20484;-74
2021/08/15 09:16:00;;;;;;;13.07;4.72;;;32.20;43.00;;;;;;6133970;28;20114;-73
2021/08/15 09:19:26;;;;;;;25.42;5.72;;;32.30;42.50;;;;;;6149706;28;20109;-74
2021/08/15 09:22:29;;;;;;;13.00;4.57;;;32.30;42.40;;;;;;6133217;28;20740;-74
2021/08/15 09:25:30;;;;;;;15.05;4.97;;;32.40;42.10;;;;;;6150179;28;20063;-73
2021/08/15 09:28:34;;;;;;;15.85;5.25;;;32.50;41.90;;;;;;6152846;28;20051;-73
2021/08/15 09:31:35;;;;;;;19.95;4.93;;;32.60;41.50;;;;;;6134272;28;20098;-74
2021/08/15 09:34:36;;;;;;;14.20;4.47;;;32.70;41.30;;;;;;6150340;28;20111;-74
2021/08/15 09:37:38;;;;;;;15.05;5.03;;;32.80;41.10;;;;;;6149882;28;20042;-74
2021/08/15 09:40:53;;;;;;;17.35;5.05;;;32.90;40.90;;;;;;6133810;28;20032;-74
2021/08/15 09:44:15;;;;;;;14.63;4.43;;;33.00;40.70;;;;;;6150335;28;20072;-74
2021/08/15 09:47:16;;;;;;;10.57;4.60;;;33.10;40.50;;;;;;6146610;28;20031;-74
2021/08/15 09:50:23;;;;;;;29.17;5.50;;;33.20;40.30;;;;;;6146954;28;20027;-74
2021/08/15 09:53:25;;;;;;;14.65;4.95;;;33.30;39.80;;;;;;6144803;28;20066;-74
2021/08/15 09:56:34;;;;;;;22.45;5.55;;;33.40;39.70;;;;;;6146614;28;20036;-74
2021/08/15 09:59:38;;;;;;;15.15;5.10;;;33.50;39.40;;;;;;6146947;28;20043;-74
2021/08/15 10:02:39;;;;;;;16.13;5.03;;;33.50;39.30;;;;;;6130893;28;20452;-74
2021/08/15 10:05:43;;;;;;;16.75;5.07;;;33.50;38.80;;;;;;6146941;28;20325;-74
2021/08/15 10:08:47;;;;;;;39.88;6.18;;;33.60;38.80;;;;;;6146411;28;20046;-74
2021/08/15 10:11:48;;;;;;;17.48;4.78;;;33.60;38.80;;;;;;6148131;28;20035;-74
2021/08/15 10:14:49;;;;;;;10.13;4.93;;;33.70;38.80;;;;;;6146919;28;20073;-74
2021/08/15 10:17:52;;;;;;;18.05;4.50;;;33.70;38.80;;;;;;6151376;28;20041;-75
2021/08/15 10:21:17;;;;;;;11.52;4.47;;;33.80;38.80;;;;;;6135122;28;20126;-74
2021/08/15 10:24:18;;;;;;;16.95;4.63;;;33.70;38.60;;;;;;6148967;28;20098;-73
2021/08/15 10:27:38;;;;;;;18.40;4.85;;;33.80;38.50;;;;;;6152241;28;20031;-72
2021/08/15 10:30:44;;;;;;;11.45;4.75;;;33.80;38.40;;;;;;6151669;28;20035;-73
2021/08/15 10:33:56;;;;;;;15.68;4.20;;;34.00;38.20;;;;;;6150764;28;20097;-73
2021/08/15 10:37:23;;;;;;;10.07;4.63;;;34.10;37.90;;;;;;6150939;28;20361;-73
2021/08/15 10:40:43;;;;;;;11.32;4.68;;;34.10;37.90;;;;;;6150447;28;20050;-73
2021/08/15 10:43:53;;;;;;;18.00;5.32;;;34.20;38.10;;;;;;6152324;28;20035;-73
2021/08/15 10:47:14;;;;;;;18.58;5.45;;;34.30;38.10;;;;;;6150726;28;20031;-73
2021/08/15 10:50:15;;;;;;;14.38;4.85;;;34.40;38.20;;;;;;6135925;28;20144;-73
2021/08/15 10:53:29;;;;;;;25.80;5.35;;;34.40;38.00;;;;;;6149994;28;20053;-73
2021/08/15 10:57:03;;;;;;;16.50;4.97;;;34.60;37.90;;;;;;6152566;28;20039;-74
2021/08/15 11:00:31;;;;;;;17.30;4.50;;;35.20;36.80;;;;;;6150032;28;20148;-74
2021/08/15 11:03:50;;;;;;;14.57;4.77;;;36.00;35.80;;;;;;6143508;28;20046;-74
2021/08/15 11:06:52;;;;;;;12.02;4.25;;;36.70;35.00;;;;;;6149578;28;20724;-74
2021/08/15 11:09:55;;;;;;;14.70;4.90;;;37.30;34.00;;;;;;6150024;28;20369;-74
2021/08/15 11:13:16;;;;;;;18.90;5.30;;;37.80;33.30;;;;;;6149927;28;20039;-74
2021/08/15 11:16:25;;;;;;;19.35;4.93;;;38.30;32.40;;;;;;6149759;28;20479;-75
2021/08/15 11:19:28;;;;;;;27.52;5.78;;;38.60;32.00;;;;;;6148478;28;20047;-74
2021/08/15 11:22:29;;;;;;;11.30;5.15;;;38.70;31.80;;;;;;6151052;28;20560;-73
2021/08/15 11:25:31;;;;;;;21.60;5.13;;;39.00;31.40;;;;;;6146366;28;20074;-73
2021/08/15 11:28:32;;;;;;;16.52;5.13;;;39.30;31.10;;;;;;6159656;28;20346;-74
2021/08/15 11:31:37;;;;;;;14.32;4.70;;;39.60;30.80;;;;;;6151786;28;20126;-74
2021/08/15 11:34:38;;;;;;;13.93;4.28;;;40.00;30.40;;;;;;6149406;28;20354;-74
2021/08/15 11:37:53;;;;;;;15.52;4.30;;;40.20;30.00;;;;;;6149339;28;20059;-74
2021/08/15 11:40:55;;;;;;;14.00;4.40;;;40.50;29.80;;;;;;6150485;28;20123;-74
2021/08/15 11:43:56;;;;;;;19.00;4.45;;;40.60;29.40;;;;;;6150624;28;20368;-74
2021/08/15 11:47:16;;;;;;;18.58;4.05;;;40.50;29.20;;;;;;6150204;28;20031;-74
2021/08/15 11:50:21;;;;;;;15.05;4.32;;;40.40;29.10;;;;;;6133229;28;20034;-74
2021/08/15 11:53:25;;;;;;;20.20;4.03;;;40.30;29.30;;;;;;6148995;28;20043;-74
2021/08/15 11:56:26;;;;;;;21.38;4.55;;;40.40;29.50;;;;;;6152024;28;20357;-74
2021/08/15 11:59:27;;;;;;;16.70;4.65;;;40.40;29.40;;;;;;6134452;28;20089;-74
2021/08/15 12:02:28;;;;;;;22.80;4.90;;;40.40;29.60;;;;;;6134003;28;20035;-74
2021/08/15 12:05:30;;;;;;;17.90;4.38;;;40.60;29.40;;;;;;6150378;28;20051;-74
2021/08/15 12:08:40;;;;;;;14.65;5.47;;;40.70;29.10;;;;;;6150053;28;20102;-74
2021/08/15 12:11:41;;;;;;;19.02;4.75;;;40.90;28.90;;;;;;6144741;28;20119;-74
2021/08/15 12:14:43;;;;;;;20.52;4.85;;;41.20;28.60;;;;;;6148975;28;20102;-74
2021/08/15 12:17:49;;;;;;;17.15;4.45;;;41.50;28.40;;;;;;6149901;28;20420;-74
2021/08/15 12:20:50;;;;;;;19.25;4.15;;;41.80;28.10;;;;;;6132570;28;20122;-74
2021/08/15 12:24:13;;;;;;;17.42;4.05;;;42.10;27.90;;;;;;6148206;28;20409;-74
2021/08/15 12:27:14;;;;;;;24.35;4.85;;;42.30;27.60;;;;;;6132277;28;20027;-74
2021/08/15 12:30:28;;;;;;;22.02;4.60;;;42.60;27.40;;;;;;6149611;28;20074;-75
2021/08/15 12:33:33;;;;;;;22.95;4.68;;;42.90;27.20;;;;;;6131920;28;20409;-74
2021/08/15 12:36:50;;;;;;;14.88;4.45;;;43.10;26.90;;;;;;6148502;28;20046;-74
2021/08/15 12:40:08;;;;;;;18.02;4.20;;;43.30;26.60;;;;;;6148912;28;20437;-74
2021/08/15 12:43:11;;;;;;;20.55;4.53;;;43.50;26.30;;;;;;6148754;28;20039;-74
2021/08/15 12:46:24;;;;;;;16.77;4.40;;;43.60;26.20;;;;;;6132671;28;20031;-74
2021/08/15 12:49:31;;;;;;;17.17;4.85;;;43.90;25.90;;;;;;6149341;28;20441;-74
2021/08/15 12:52:50;;;;;;;15.73;4.50;;;44.10;25.80;;;;;;6147845;28;20059;-74
2021/08/15 12:55:51;;;;;;;13.75;4.10;;;44.40;25.40;;;;;;6146610;28;20051;-74
2021/08/15 12:58:52;;;;;;;12.98;3.78;;;44.60;25.00;;;;;;6148951;28;20046;-75
2021/08/15 13:01:54;;;;;;;15.27;3.97;;;45.10;24.40;;;;;;6135087;28;20031;-74
2021/08/15 13:04:59;;;;;;;15.10;5.38;;;45.60;24.30;;;;;;6150094;28;20033;-74
2021/08/15 13:08:02;;;;;;;12.48;4.65;;;46.00;24.00;;;;;;6148253;28;20050;-74
2021/08/15 13:11:03;;;;;;;12.45;4.20;;;46.40;23.50;;;;;;6132181;28;20050;-75
2021/08/15 13:14:04;;;;;;;18.45;4.05;;;46.60;23.10;;;;;;6147884;28;20039;-74
2021/08/15 13:17:06;;;;;;;12.20;3.97;;;46.90;22.80;;;;;;6151272;28;20039;-75
2021/08/15 13:20:10;;;;;;;12.48;3.60;;;47.30;22.40;;;;;;6148087;28;20046;-75
2021/08/15 13:23:12;;;;;;;29.15;4.65;;;47.60;22.10;;;;;;6151342;28;20356;-74
2021/08/15 13:26:13;;;;;;;20.23;4.25;;;48.10;21.60;;;;;;6153341;28;20039;-74
2021/08/15 13:29:14;;;;;;;27.08;4.50;;;48.30;21.50;;;;;;6151129;28;20039;-74
2021/08/15 13:32:15;;;;;;;12.50;4.13;;;48.80;21.20;;;;;;6164887;28;20043;-74
2021/08/15 13:35:16;;;;;;;18.67;4.30;;;49.30;20.90;;;;;;6148063;28;20368;-75
2021/08/15 13:38:17;;;;;;;13.50;3.92;;;49.60;20.40;;;;;;6165660;28;20437;-74
2021/08/15 13:41:18;;;;;;;13.50;4.07;;;49.80;20.30;;;;;;6149419;28;20043;-75
2021/08/15 13:44:19;;;;;;;17.00;4.45;;;50.00;20.10;;;;;;6163595;28;20054;-75
2021/08/15 13:47:21;;;;;;;17.02;3.92;;;50.10;19.90;;;;;;6164275;28;20047;-75
2021/08/15 13:50:23;;;;;;;21.77;3.95;;;50.30;19.70;;;;;;6148776;28;20047;-75
2021/08/15 13:53:24;;;;;;;9.75;3.63;;;50.50;19.50;;;;;;6151089;28;20042;-75
2021/08/15 13:56:25;;;;;;;19.35;3.55;;;50.70;19.20;;;;;;6152656;28;20063;-75
2021/08/15 13:59:26;;;;;;;18.48;4.25;;;50.80;19.10;;;;;;6152113;28;20031;-75
2021/08/15 14:02:28;;;;;;;15.20;4.47;;;50.90;18.90;;;;;;6151602;28;20122;-75
2021/08/15 14:05:29;;;;;;;27.05;5.03;;;50.80;19.00;;;;;;6135918;28;20039;-75
2021/08/15 14:08:30;;;;;;;28.92;4.50;;;50.60;18.90;;;;;;6135887;28;20035;-75
2021/08/15 14:11:31;;;;;;;15.77;4.45;;;50.20;18.90;;;;;;6151551;28;20119;-74
2021/08/15 14:14:32;;;;;;;17.75;4.95;;;50.10;19.10;;;;;;6151699;28;20053;-75
2021/08/15 14:17:34;;;;;;;32.13;4.80;;;49.80;19.20;;;;;;6152845;28;20079;-74
2021/08/15 14:20:36;;;;;;;14.52;4.22;;;49.80;19.30;;;;;;6151171;28;20036;-74
2021/08/15 14:23:37;;;;;;;15.60;3.65;;;49.80;19.40;;;;;;6151874;28;20032;-74
2021/08/15 14:26:42;;;;;;;22.45;4.75;;;49.70;19.70;;;;;;6151391;28;20043;-73
2021/08/15 14:29:43;;;;;;;20.42;3.67;;;49.40;19.80;;;;;;6152458;28;20042;-73
2021/08/15 14:32:44;;;;;;;15.23;4.13;;;49.50;19.80;;;;;;6152153;28;20044;-73
2021/08/15 14:35:45;;;;;;;13.93;3.92;;;49.10;19.90;;;;;;6153498;28;20429;-76
2021/08/15 14:38:47;;;;;;;16.83;3.95;;;48.20;20.60;;;;;;6118634;29;20035;-74
2021/08/15 14:41:48;;;;;;;18.63;4.25;;;47.10;21.40;;;;;;6152328;28;20078;-75
2021/08/15 14:44:49;;;;;;;24.13;4.65;;;46.30;22.20;;;;;;6136387;28;20059;-73
2021/08/15 14:47:50;;;;;;;13.13;3.78;;;45.30;22.90;;;;;;6152904;28;20031;-75
2021/08/15 14:50:52;;;;;;;20.52;4.68;;;44.50;23.50;;;;;;6153099;28;20348;-75
2021/08/15 14:53:53;;;;;;;21.00;4.18;;;43.70;24.00;;;;;;6127518;29;20047;-75
2021/08/15 14:56:54;;;;;;;15.70;5.10;;;42.90;24.80;;;;;;6128998;28;20094;-74
2021/08/15 14:59:55;;;;;;;12.32;3.63;;;42.10;25.60;;;;;;6127837;28;20043;-76
2021/08/15 15:02:56;;;;;;;14.95;4.10;;;41.50;26.20;;;;;;6128914;28;20035;-73
2021/08/15 15:05:57;;;;;;;17.02;4.13;;;41.00;26.70;;;;;;6127802;28;20046;-73
2021/08/15 15:08:58;;;;;;;20.05;4.75;;;40.80;27.00;;;;;;6128848;28;20035;-75
2021/08/15 15:12:00;;;;;;;14.70;3.95;;;40.60;27.20;;;;;;6127551;29;20058;-73
2021/08/15 15:15:01;;;;;;;13.50;4.70;;;40.40;27.60;;;;;;6128698;28;20168;-75
2021/08/15 15:18:03;;;;;;;17.65;4.30;;;40.10;27.90;;;;;;6135895;28;20508;-75
2021/08/15 15:21:05;;;;;;;15.63;3.88;;;40.00;28.30;;;;;;6151054;28;20057;-73
2021/08/15 15:24:06;;;;;;;16.40;4.45;;;39.90;28.30;;;;;;6149253;28;20102;-73
2021/08/15 15:27:07;;;;;;;14.60;4.45;;;39.80;28.30;;;;;;6150387;28;20038;-74
2021/08/15 15:30:09;;;;;;;23.67;5.20;;;39.60;28.30;;;;;;6151054;28;20031;-75
2021/08/15 15:33:11;;;;;;;13.52;3.17;;;39.60;28.50;;;;;;6152275;28;20110;-75
2021/08/15 15:36:13;;;;;;;18.45;4.38;;;39.60;28.50;;;;;;6152152;28;20039;-75
2021/08/15 15:39:15;;;;;;;30.05;4.63;;;39.60;28.50;;;;;;6150998;28;20094;-74
2021/08/15 15:42:16;;;;;;;18.80;3.83;;;39.80;28.50;;;;;;6150093;28;20468;-75